sensor_id;sensor_type;location;lat;lon;timestamp;P1;durP1;ratioP1;P2;durP2;ratioP2
39524;SDS011;25203;50.754;6.978;2022-12-18T00:01:27;31.77;;;14.93;;
39524;SDS011;25203;50.754;6.978;2022-12-18T00:03:28;39.50;;;17.05;;
39524;SDS011;25203;50.754;6.978;2022-12-18T00:05:29;31.90;;;16.60;;
39524;SDS011;25203;50.754;6.978;2022-12-18T00:07:29;33.38;;;16.45;;
39524;SDS011;25203;50.754;6.978;2022-12-18T00:09:30;26.52;;;15.68;;
39524;SDS011;25203;50.754;6.978;2022-12-18T00:11:31;29.85;;;15.70;;
39524;SDS011;25203;50.754;6.978;2022-12-18T00:13:31;39.08;;;16.50;;
39524;SDS011;25203;50.754;6.978;2022-12-18T00:15:36;33.67;;;17.13;;
39524;SDS011;25203;50.754;6.978;2022-12-18T00:17:38;34.47;;;15.65;;
39524;SDS011;25203;50.754;6.978;2022-12-18T00:19:39;29.13;;;15.60;;
39524;SDS011;25203;50.754;6.978;2022-12-18T00:21:40;30.90;;;15.23;;
39524;SDS011;25203;50.754;6.978;2022-12-18T00:23:42;33.60;;;16.08;;
39524;SDS011;25203;50.754;6.978;2022-12-18T00:25:44;35.25;;;16.42;;
39524;SDS011;25203;50.754;6.978;2022-12-18T00:27:44;32.30;;;15.70;;
39524;SDS011;25203;50.754;6.978;2022-12-18T00:29:45;34.95;;;17.13;;
39524;SDS011;25203;50.754;6.978;2022-12-18T00:31:46;34.08;;;16.27;;
39524;SDS011;25203;50.754;6.978;2022-12-18T00:33:46;35.17;;;16.08;;
39524;SDS011;25203;50.754;6.978;2022-12-18T00:35:47;32.22;;;15.80;;
39524;SDS011;25203;50.754;6.978;2022-12-18T00:37:48;26.33;;;14.25;;
39524;SDS011;25203;50.754;6.978;2022-12-18T00:39:49;34.63;;;15.93;;
39524;SDS011;25203;50.754;6.978;2022-12-18T00:41:49;35.65;;;17.25;;
39524;SDS011;25203;50.754;6.978;2022-12-18T00:44:09;39.63;;;19.45;;
39524;SDS011;25203;50.754;6.978;2022-12-18T00:46:11;38.17;;;18.30;;
39524;SDS011;25203;50.754;6.978;2022-12-18T00:48:12;38.95;;;18.08;;
39524;SDS011;25203;50.754;6.978;2022-12-18T00:50:13;33.85;;;17.85;;
39524;SDS011;25203;50.754;6.978;2022-12-18T00:52:13;36.45;;;19.05;;
39524;SDS011;25203;50.754;6.978;2022-12-18T00:54:14;39.28;;;19.30;;
39524;SDS011;25203;50.754;6.978;2022-12-18T00:56:15;37.65;;;18.38;;
39524;SDS011;25203;50.754;6.978;2022-12-18T00:58:16;35.35;;;17.90;;
39524;SDS011;25203;50.754;6.978;2022-12-18T01:00:16;37.72;;;19.17;;
39524;SDS011;25203;50.754;6.978;2022-12-18T01:02:17;32.78;;;16.95;;
39524;SDS011;25203;50.754;6.978;2022-12-18T01:04:18;35.80;;;19.08;;
39524;SDS011;25203;50.754;6.978;2022-12-18T01:06:19;36.75;;;18.17;;
39524;SDS011;25203;50.754;6.978;2022-12-18T01:08:20;35.55;;;16.42;;
39524;SDS011;25203;50.754;6.978;2022-12-18T01:10:20;34.42;;;17.88;;
39524;SDS011;25203;50.754;6.978;2022-12-18T01:12:21;35.15;;;18.77;;
39524;SDS011;25203;50.754;6.978;2022-12-18T01:14:21;37.58;;;18.30;;
39524;SDS011;25203;50.754;6.978;2022-12-18T01:16:22;35.35;;;18.13;;
39524;SDS011;25203;50.754;6.978;2022-12-18T01:18:23;36.97;;;19.52;;
39524;SDS011;25203;50.754;6.978;2022-12-18T01:20:23;42.50;;;17.52;;
39524;SDS011;25203;50.754;6.978;2022-12-18T01:22:24;39.78;;;18.33;;
39524;SDS011;25203;50.754;6.978;2022-12-18T01:24:25;40.97;;;18.75;;
39524;SDS011;25203;50.754;6.978;2022-12-18T01:26:26;36.25;;;18.88;;
39524;SDS011;25203;50.754;6.978;2022-12-18T01:28:29;48.95;;;21.73;;
39524;SDS011;25203;50.754;6.978;2022-12-18T01:30:29;42.80;;;19.98;;
39524;SDS011;25203;50.754;6.978;2022-12-18T01:32:30;40.75;;;20.83;;
39524;SDS011;25203;50.754;6.978;2022-12-18T01:34:32;47.92;;;20.77;;
39524;SDS011;25203;50.754;6.978;2022-12-18T01:36:33;46.85;;;21.17;;
39524;SDS011;25203;50.754;6.978;2022-12-18T01:38:35;59.03;;;27.67;;
39524;SDS011;25203;50.754;6.978;2022-12-18T01:40:36;45.65;;;18.30;;
39524;SDS011;25203;50.754;6.978;2022-12-18T01:42:37;37.55;;;17.83;;
39524;SDS011;25203;50.754;6.978;2022-12-18T01:47:07;41.65;;;17.33;;
39524;SDS011;25203;50.754;6.978;2022-12-18T01:49:07;36.05;;;16.65;;
39524;SDS011;25203;50.754;6.978;2022-12-18T01:51:09;41.25;;;17.65;;
39524;SDS011;25203;50.754;6.978;2022-12-18T01:53:17;33.50;;;17.65;;
39524;SDS011;25203;50.754;6.978;2022-12-18T01:55:22;34.13;;;17.25;;
39524;SDS011;25203;50.754;6.978;2022-12-18T01:57:26;33.70;;;17.52;;
39524;SDS011;25203;50.754;6.978;2022-12-18T01:59:28;34.22;;;18.50;;
39524;SDS011;25203;50.754;6.978;2022-12-18T02:01:30;40.35;;;16.92;;
39524;SDS011;25203;50.754;6.978;2022-12-18T02:03:31;36.60;;;16.80;;
39524;SDS011;25203;50.754;6.978;2022-12-18T02:05:35;39.35;;;17.50;;
39524;SDS011;25203;50.754;6.978;2022-12-18T02:10:19;33.63;;;16.58;;
39524;SDS011;25203;50.754;6.978;2022-12-18T02:12:24;31.75;;;16.10;;
39524;SDS011;25203;50.754;6.978;2022-12-18T02:14:40;35.40;;;16.77;;
39524;SDS011;25203;50.754;6.978;2022-12-18T02:18:56;32.55;;;16.60;;
39524;SDS011;25203;50.754;6.978;2022-12-18T02:23:17;37.35;;;17.25;;
39524;SDS011;25203;50.754;6.978;2022-12-18T02:27:34;34.00;;;17.25;;
39524;SDS011;25203;50.754;6.978;2022-12-18T02:29:39;30.75;;;16.88;;
39524;SDS011;25203;50.754;6.978;2022-12-18T02:31:49;34.50;;;16.60;;
39524;SDS011;25203;50.754;6.978;2022-12-18T02:33:53;30.50;;;15.05;;
39524;SDS011;25203;50.754;6.978;2022-12-18T02:35:57;29.58;;;15.02;;
39524;SDS011;25203;50.754;6.978;2022-12-18T02:38:00;34.65;;;15.82;;
39524;SDS011;25203;50.754;6.978;2022-12-18T02:40:03;34.80;;;17.63;;
39524;SDS011;25203;50.754;6.978;2022-12-18T02:42:04;37.17;;;18.08;;
39524;SDS011;25203;50.754;6.978;2022-12-18T02:44:11;33.85;;;17.60;;
39524;SDS011;25203;50.754;6.978;2022-12-18T02:46:25;30.73;;;16.88;;
39524;SDS011;25203;50.754;6.978;2022-12-18T02:48:28;34.67;;;16.50;;
39524;SDS011;25203;50.754;6.978;2022-12-18T02:53:10;32.60;;;16.02;;
39524;SDS011;25203;50.754;6.978;2022-12-18T03:00:11;27.95;;;14.52;;
39524;SDS011;25203;50.754;6.978;2022-12-18T03:02:18;29.58;;;15.80;;
39524;SDS011;25203;50.754;6.978;2022-12-18T03:04:25;33.03;;;16.25;;
39524;SDS011;25203;50.754;6.978;2022-12-18T03:06:30;27.65;;;15.55;;
39524;SDS011;25203;50.754;6.978;2022-12-18T03:08:37;34.15;;;16.88;;
39524;SDS011;25203;50.754;6.978;2022-12-18T03:10:42;27.15;;;14.65;;
39524;SDS011;25203;50.754;6.978;2022-12-18T03:17:02;32.42;;;14.82;;
39524;SDS011;25203;50.754;6.978;2022-12-18T03:19:08;31.73;;;14.80;;
39524;SDS011;25203;50.754;6.978;2022-12-18T03:21:14;28.10;;;13.45;;
39524;SDS011;25203;50.754;6.978;2022-12-18T03:23:22;29.83;;;14.75;;
39524;SDS011;25203;50.754;6.978;2022-12-18T03:25:27;28.42;;;13.93;;
39524;SDS011;25203;50.754;6.978;2022-12-18T03:27:30;29.30;;;14.43;;
39524;SDS011;25203;50.754;6.978;2022-12-18T03:29:38;26.58;;;14.18;;
39524;SDS011;25203;50.754;6.978;2022-12-18T03:31:44;28.02;;;15.00;;
39524;SDS011;25203;50.754;6.978;2022-12-18T03:33:52;29.98;;;14.32;;
39524;SDS011;25203;50.754;6.978;2022-12-18T03:35:56;25.60;;;13.75;;
39524;SDS011;25203;50.754;6.978;2022-12-18T03:37:56;30.08;;;15.25;;
39524;SDS011;25203;50.754;6.978;2022-12-18T03:39:57;25.95;;;14.07;;
39524;SDS011;25203;50.754;6.978;2022-12-18T03:46:16;30.88;;;14.50;;
39524;SDS011;25203;50.754;6.978;2022-12-18T03:48:37;31.25;;;14.57;;
39524;SDS011;25203;50.754;6.978;2022-12-18T03:53:07;25.70;;;13.02;;
39524;SDS011;25203;50.754;6.978;2022-12-18T03:55:24;28.95;;;13.63;;
39524;SDS011;25203;50.754;6.978;2022-12-18T03:57:29;30.35;;;14.23;;
39524;SDS011;25203;50.754;6.978;2022-12-18T03:59:32;29.08;;;14.55;;
39524;SDS011;25203;50.754;6.978;2022-12-18T04:01:35;28.58;;;13.85;;
39524;SDS011;25203;50.754;6.978;2022-12-18T04:03:39;31.65;;;15.55;;
39524;SDS011;25203;50.754;6.978;2022-12-18T04:05:42;31.98;;;16.05;;
39524;SDS011;25203;50.754;6.978;2022-12-18T04:07:44;34.10;;;16.08;;
39524;SDS011;25203;50.754;6.978;2022-12-18T04:09:47;32.80;;;15.80;;
39524;SDS011;25203;50.754;6.978;2022-12-18T04:11:48;33.33;;;16.75;;
39524;SDS011;25203;50.754;6.978;2022-12-18T04:13:52;33.80;;;16.60;;
39524;SDS011;25203;50.754;6.978;2022-12-18T04:15:56;29.13;;;15.65;;
39524;SDS011;25203;50.754;6.978;2022-12-18T04:17:57;31.85;;;15.98;;
39524;SDS011;25203;50.754;6.978;2022-12-18T04:19:58;33.80;;;16.02;;
39524;SDS011;25203;50.754;6.978;2022-12-18T04:21:58;27.30;;;15.32;;
39524;SDS011;25203;50.754;6.978;2022-12-18T04:23:59;27.77;;;13.73;;
39524;SDS011;25203;50.754;6.978;2022-12-18T04:25:59;27.75;;;14.30;;
39524;SDS011;25203;50.754;6.978;2022-12-18T04:28:00;28.70;;;14.38;;
39524;SDS011;25203;50.754;6.978;2022-12-18T04:30:01;29.85;;;16.35;;
39524;SDS011;25203;50.754;6.978;2022-12-18T04:32:02;28.88;;;15.38;;
39524;SDS011;25203;50.754;6.978;2022-12-18T04:34:02;30.05;;;14.65;;
39524;SDS011;25203;50.754;6.978;2022-12-18T04:36:03;30.77;;;14.93;;
39524;SDS011;25203;50.754;6.978;2022-12-18T04:38:05;28.42;;;14.73;;
39524;SDS011;25203;50.754;6.978;2022-12-18T04:40:08;29.48;;;14.32;;
39524;SDS011;25203;50.754;6.978;2022-12-18T04:42:09;27.95;;;14.45;;
39524;SDS011;25203;50.754;6.978;2022-12-18T04:44:09;33.95;;;16.48;;
39524;SDS011;25203;50.754;6.978;2022-12-18T04:46:10;28.85;;;15.52;;
39524;SDS011;25203;50.754;6.978;2022-12-18T04:48:11;29.60;;;14.80;;
39524;SDS011;25203;50.754;6.978;2022-12-18T04:50:11;32.15;;;15.63;;
39524;SDS011;25203;50.754;6.978;2022-12-18T04:52:12;33.88;;;16.00;;
39524;SDS011;25203;50.754;6.978;2022-12-18T04:54:12;32.30;;;16.25;;
39524;SDS011;25203;50.754;6.978;2022-12-18T04:56:14;28.13;;;16.27;;
39524;SDS011;25203;50.754;6.978;2022-12-18T04:58:16;31.13;;;16.35;;
39524;SDS011;25203;50.754;6.978;2022-12-18T05:00:16;31.25;;;16.35;;
39524;SDS011;25203;50.754;6.978;2022-12-18T05:02:17;31.38;;;16.80;;
39524;SDS011;25203;50.754;6.978;2022-12-18T05:04:18;36.83;;;17.17;;
39524;SDS011;25203;50.754;6.978;2022-12-18T05:06:18;32.47;;;16.08;;
39524;SDS011;25203;50.754;6.978;2022-12-18T05:08:19;29.50;;;16.33;;
39524;SDS011;25203;50.754;6.978;2022-12-18T05:10:19;27.08;;;16.00;;
39524;SDS011;25203;50.754;6.978;2022-12-18T05:12:20;33.60;;;17.70;;
39524;SDS011;25203;50.754;6.978;2022-12-18T05:14:20;38.75;;;17.20;;
39524;SDS011;25203;50.754;6.978;2022-12-18T05:16:21;36.80;;;17.15;;
39524;SDS011;25203;50.754;6.978;2022-12-18T05:18:25;38.63;;;17.92;;
39524;SDS011;25203;50.754;6.978;2022-12-18T05:20:26;35.78;;;18.13;;
39524;SDS011;25203;50.754;6.978;2022-12-18T05:22:27;38.10;;;18.55;;
39524;SDS011;25203;50.754;6.978;2022-12-18T05:24:28;36.80;;;18.23;;
39524;SDS011;25203;50.754;6.978;2022-12-18T05:26:28;48.33;;;20.15;;
39524;SDS011;25203;50.754;6.978;2022-12-18T05:28:29;36.22;;;18.50;;
39524;SDS011;25203;50.754;6.978;2022-12-18T05:30:31;34.88;;;18.65;;
39524;SDS011;25203;50.754;6.978;2022-12-18T05:32:32;36.78;;;18.45;;
39524;SDS011;25203;50.754;6.978;2022-12-18T05:34:33;35.72;;;18.67;;
39524;SDS011;25203;50.754;6.978;2022-12-18T05:36:33;42.70;;;19.33;;
39524;SDS011;25203;50.754;6.978;2022-12-18T05:38:35;39.03;;;19.45;;
39524;SDS011;25203;50.754;6.978;2022-12-18T05:40:37;38.67;;;18.88;;
39524;SDS011;25203;50.754;6.978;2022-12-18T05:42:41;36.65;;;17.27;;
39524;SDS011;25203;50.754;6.978;2022-12-18T05:44:41;38.78;;;18.88;;
39524;SDS011;25203;50.754;6.978;2022-12-18T05:46:43;39.05;;;18.23;;
39524;SDS011;25203;50.754;6.978;2022-12-18T05:48:44;37.33;;;19.40;;
39524;SDS011;25203;50.754;6.978;2022-12-18T05:50:45;38.05;;;18.75;;
39524;SDS011;25203;50.754;6.978;2022-12-18T05:52:46;40.03;;;18.08;;
39524;SDS011;25203;50.754;6.978;2022-12-18T05:54:47;36.00;;;19.17;;
39524;SDS011;25203;50.754;6.978;2022-12-18T05:56:48;38.05;;;18.27;;
39524;SDS011;25203;50.754;6.978;2022-12-18T05:58:51;40.47;;;18.38;;
39524;SDS011;25203;50.754;6.978;2022-12-18T06:00:53;43.35;;;19.25;;
39524;SDS011;25203;50.754;6.978;2022-12-18T06:02:53;36.85;;;20.15;;
39524;SDS011;25203;50.754;6.978;2022-12-18T06:04:54;35.95;;;18.80;;
39524;SDS011;25203;50.754;6.978;2022-12-18T06:06:55;34.35;;;18.00;;
39524;SDS011;25203;50.754;6.978;2022-12-18T06:08:57;38.95;;;19.25;;
39524;SDS011;25203;50.754;6.978;2022-12-18T06:10:57;37.72;;;19.65;;
39524;SDS011;25203;50.754;6.978;2022-12-18T06:12:58;36.20;;;19.20;;
39524;SDS011;25203;50.754;6.978;2022-12-18T06:14:59;34.83;;;18.98;;
39524;SDS011;25203;50.754;6.978;2022-12-18T06:17:00;39.97;;;18.65;;
39524;SDS011;25203;50.754;6.978;2022-12-18T06:19:01;36.65;;;18.95;;
39524;SDS011;25203;50.754;6.978;2022-12-18T06:21:04;36.58;;;18.73;;
39524;SDS011;25203;50.754;6.978;2022-12-18T06:23:05;36.00;;;18.75;;
39524;SDS011;25203;50.754;6.978;2022-12-18T06:25:06;39.17;;;21.08;;
39524;SDS011;25203;50.754;6.978;2022-12-18T06:27:07;37.83;;;19.60;;
39524;SDS011;25203;50.754;6.978;2022-12-18T06:29:07;40.88;;;19.98;;
39524;SDS011;25203;50.754;6.978;2022-12-18T06:31:08;37.13;;;19.13;;
39524;SDS011;25203;50.754;6.978;2022-12-18T06:33:09;36.75;;;18.23;;
39524;SDS011;25203;50.754;6.978;2022-12-18T06:35:10;37.83;;;18.95;;
39524;SDS011;25203;50.754;6.978;2022-12-18T06:37:10;37.60;;;19.08;;
39524;SDS011;25203;50.754;6.978;2022-12-18T06:39:11;41.92;;;19.92;;
39524;SDS011;25203;50.754;6.978;2022-12-18T06:41:13;39.13;;;19.40;;
39524;SDS011;25203;50.754;6.978;2022-12-18T06:43:15;49.80;;;21.33;;
39524;SDS011;25203;50.754;6.978;2022-12-18T06:45:15;38.28;;;18.10;;
39524;SDS011;25203;50.754;6.978;2022-12-18T06:47:16;38.75;;;19.48;;
39524;SDS011;25203;50.754;6.978;2022-12-18T06:49:17;39.75;;;20.95;;
39524;SDS011;25203;50.754;6.978;2022-12-18T06:51:19;40.88;;;19.45;;
39524;SDS011;25203;50.754;6.978;2022-12-18T06:53:20;39.72;;;19.60;;
39524;SDS011;25203;50.754;6.978;2022-12-18T06:55:21;38.55;;;19.80;;
39524;SDS011;25203;50.754;6.978;2022-12-18T06:57:22;35.38;;;18.88;;
39524;SDS011;25203;50.754;6.978;2022-12-18T06:59:23;38.03;;;19.27;;
39524;SDS011;25203;50.754;6.978;2022-12-18T07:01:23;38.45;;;18.48;;
39524;SDS011;25203;50.754;6.978;2022-12-18T07:03:24;33.90;;;18.70;;
39524;SDS011;25203;50.754;6.978;2022-12-18T07:05:25;39.22;;;19.33;;
39524;SDS011;25203;50.754;6.978;2022-12-18T07:07:25;40.65;;;19.08;;
39524;SDS011;25203;50.754;6.978;2022-12-18T07:09:26;35.30;;;18.48;;
39524;SDS011;25203;50.754;6.978;2022-12-18T07:11:26;39.05;;;18.33;;
39524;SDS011;25203;50.754;6.978;2022-12-18T07:13:27;36.75;;;17.42;;
39524;SDS011;25203;50.754;6.978;2022-12-18T07:15:28;36.13;;;19.25;;
39524;SDS011;25203;50.754;6.978;2022-12-18T07:17:28;37.55;;;20.08;;
39524;SDS011;25203;50.754;6.978;2022-12-18T07:19:29;35.78;;;19.25;;
39524;SDS011;25203;50.754;6.978;2022-12-18T07:21:30;35.70;;;20.33;;
39524;SDS011;25203;50.754;6.978;2022-12-18T07:23:31;36.67;;;19.35;;
39524;SDS011;25203;50.754;6.978;2022-12-18T07:25:34;40.40;;;19.30;;
39524;SDS011;25203;50.754;6.978;2022-12-18T07:27:35;41.15;;;19.35;;
39524;SDS011;25203;50.754;6.978;2022-12-18T07:29:35;40.67;;;19.42;;
39524;SDS011;25203;50.754;6.978;2022-12-18T07:31:36;34.92;;;18.13;;
39524;SDS011;25203;50.754;6.978;2022-12-18T07:33:37;36.97;;;18.85;;
39524;SDS011;25203;50.754;6.978;2022-12-18T07:35:37;37.97;;;19.45;;
39524;SDS011;25203;50.754;6.978;2022-12-18T07:37:38;37.40;;;17.42;;
39524;SDS011;25203;50.754;6.978;2022-12-18T07:39:40;33.15;;;17.08;;
39524;SDS011;25203;50.754;6.978;2022-12-18T07:41:41;30.88;;;18.17;;
39524;SDS011;25203;50.754;6.978;2022-12-18T07:44:04;39.90;;;18.90;;
39524;SDS011;25203;50.754;6.978;2022-12-18T07:46:05;36.22;;;17.38;;
39524;SDS011;25203;50.754;6.978;2022-12-18T07:48:06;37.47;;;18.90;;
39524;SDS011;25203;50.754;6.978;2022-12-18T07:50:07;36.72;;;17.83;;
39524;SDS011;25203;50.754;6.978;2022-12-18T07:52:08;38.08;;;18.42;;
39524;SDS011;25203;50.754;6.978;2022-12-18T07:54:09;37.75;;;19.35;;
39524;SDS011;25203;50.754;6.978;2022-12-18T07:56:10;31.10;;;16.92;;
39524;SDS011;25203;50.754;6.978;2022-12-18T07:58:12;35.90;;;19.55;;
39524;SDS011;25203;50.754;6.978;2022-12-18T08:00:13;38.53;;;17.70;;
39524;SDS011;25203;50.754;6.978;2022-12-18T08:02:14;34.33;;;17.45;;
39524;SDS011;25203;50.754;6.978;2022-12-18T08:04:14;36.22;;;17.85;;
39524;SDS011;25203;50.754;6.978;2022-12-18T08:06:15;34.38;;;18.40;;
39524;SDS011;25203;50.754;6.978;2022-12-18T08:08:16;34.40;;;17.30;;
39524;SDS011;25203;50.754;6.978;2022-12-18T08:10:17;35.47;;;17.40;;
39524;SDS011;25203;50.754;6.978;2022-12-18T08:12:18;35.40;;;19.15;;
39524;SDS011;25203;50.754;6.978;2022-12-18T08:14:18;34.00;;;18.02;;
39524;SDS011;25203;50.754;6.978;2022-12-18T08:16:19;32.05;;;17.52;;
39524;SDS011;25203;50.754;6.978;2022-12-18T08:18:21;32.42;;;19.15;;
39524;SDS011;25203;50.754;6.978;2022-12-18T08:20:21;31.23;;;16.90;;
39524;SDS011;25203;50.754;6.978;2022-12-18T08:22:22;40.47;;;19.10;;
39524;SDS011;25203;50.754;6.978;2022-12-18T08:24:22;30.00;;;16.52;;
39524;SDS011;25203;50.754;6.978;2022-12-18T08:26:23;38.90;;;18.08;;
39524;SDS011;25203;50.754;6.978;2022-12-18T08:28:25;34.72;;;18.23;;
39524;SDS011;25203;50.754;6.978;2022-12-18T08:30:26;33.80;;;16.58;;
39524;SDS011;25203;50.754;6.978;2022-12-18T08:32:27;33.38;;;16.90;;
39524;SDS011;25203;50.754;6.978;2022-12-18T08:34:28;27.30;;;15.95;;
39524;SDS011;25203;50.754;6.978;2022-12-18T08:36:28;26.77;;;14.52;;
39524;SDS011;25203;50.754;6.978;2022-12-18T08:38:29;28.02;;;15.45;;
39524;SDS011;25203;50.754;6.978;2022-12-18T08:40:30;28.25;;;15.88;;
39524;SDS011;25203;50.754;6.978;2022-12-18T08:42:30;32.30;;;15.57;;
39524;SDS011;25203;50.754;6.978;2022-12-18T08:44:49;25.83;;;14.13;;
39524;SDS011;25203;50.754;6.978;2022-12-18T08:46:50;22.75;;;14.00;;
39524;SDS011;25203;50.754;6.978;2022-12-18T08:48:51;28.23;;;15.70;;
39524;SDS011;25203;50.754;6.978;2022-12-18T08:50:54;29.58;;;14.15;;
39524;SDS011;25203;50.754;6.978;2022-12-18T08:52:58;28.25;;;15.70;;
39524;SDS011;25203;50.754;6.978;2022-12-18T08:54:58;24.38;;;14.77;;
39524;SDS011;25203;50.754;6.978;2022-12-18T08:56:59;26.20;;;14.13;;
39524;SDS011;25203;50.754;6.978;2022-12-18T08:58:59;28.13;;;15.10;;
39524;SDS011;25203;50.754;6.978;2022-12-18T09:01:04;33.70;;;14.82;;
39524;SDS011;25203;50.754;6.978;2022-12-18T09:03:10;27.00;;;15.30;;
39524;SDS011;25203;50.754;6.978;2022-12-18T09:05:14;26.60;;;14.13;;
39524;SDS011;25203;50.754;6.978;2022-12-18T09:07:15;29.10;;;14.02;;
39524;SDS011;25203;50.754;6.978;2022-12-18T09:09:15;26.73;;;14.73;;
39524;SDS011;25203;50.754;6.978;2022-12-18T09:11:21;25.90;;;14.00;;
39524;SDS011;25203;50.754;6.978;2022-12-18T09:13:23;26.70;;;15.70;;
39524;SDS011;25203;50.754;6.978;2022-12-18T09:15:24;27.85;;;14.57;;
39524;SDS011;25203;50.754;6.978;2022-12-18T09:17:25;27.67;;;15.38;;
39524;SDS011;25203;50.754;6.978;2022-12-18T09:19:26;29.17;;;14.43;;
39524;SDS011;25203;50.754;6.978;2022-12-18T09:21:28;26.67;;;15.00;;
39524;SDS011;25203;50.754;6.978;2022-12-18T09:23:30;31.17;;;16.00;;
39524;SDS011;25203;50.754;6.978;2022-12-18T09:25:31;30.55;;;16.02;;
39524;SDS011;25203;50.754;6.978;2022-12-18T09:27:33;28.45;;;15.73;;
39524;SDS011;25203;50.754;6.978;2022-12-18T09:29:34;27.05;;;14.63;;
39524;SDS011;25203;50.754;6.978;2022-12-18T09:31:35;25.73;;;14.65;;
39524;SDS011;25203;50.754;6.978;2022-12-18T09:33:36;28.55;;;15.85;;
39524;SDS011;25203;50.754;6.978;2022-12-18T09:35:38;26.75;;;14.25;;
39524;SDS011;25203;50.754;6.978;2022-12-18T09:37:39;24.45;;;15.32;;
39524;SDS011;25203;50.754;6.978;2022-12-18T09:39:41;27.65;;;15.13;;
39524;SDS011;25203;50.754;6.978;2022-12-18T09:41:43;24.92;;;13.93;;
39524;SDS011;25203;50.754;6.978;2022-12-18T09:43:54;28.15;;;15.93;;
39524;SDS011;25203;50.754;6.978;2022-12-18T09:46:00;29.52;;;15.63;;
39524;SDS011;25203;50.754;6.978;2022-12-18T09:48:04;26.80;;;15.50;;
39524;SDS011;25203;50.754;6.978;2022-12-18T09:50:16;31.98;;;16.75;;
39524;SDS011;25203;50.754;6.978;2022-12-18T09:52:36;27.63;;;15.80;;
39524;SDS011;25203;50.754;6.978;2022-12-18T09:54:41;25.67;;;14.55;;
39524;SDS011;25203;50.754;6.978;2022-12-18T09:56:44;29.17;;;15.68;;
39524;SDS011;25203;50.754;6.978;2022-12-18T09:58:49;27.60;;;15.60;;
39524;SDS011;25203;50.754;6.978;2022-12-18T10:00:54;28.17;;;15.02;;
39524;SDS011;25203;50.754;6.978;2022-12-18T10:02:59;27.20;;;15.55;;
39524;SDS011;25203;50.754;6.978;2022-12-18T10:05:23;30.15;;;16.20;;
39524;SDS011;25203;50.754;6.978;2022-12-18T10:12:23;31.08;;;15.50;;
39524;SDS011;25203;50.754;6.978;2022-12-18T10:21:11;23.90;;;13.85;;
39524;SDS011;25203;50.754;6.978;2022-12-18T10:27:54;24.08;;;14.77;;
39524;SDS011;25203;50.754;6.978;2022-12-18T10:29:58;26.50;;;15.30;;
39524;SDS011;25203;50.754;6.978;2022-12-18T10:32:01;24.15;;;14.57;;
39524;SDS011;25203;50.754;6.978;2022-12-18T10:34:01;25.75;;;15.38;;
39524;SDS011;25203;50.754;6.978;2022-12-18T10:36:02;25.95;;;15.23;;
39524;SDS011;25203;50.754;6.978;2022-12-18T10:40:13;27.13;;;16.02;;
39524;SDS011;25203;50.754;6.978;2022-12-18T10:42:16;25.98;;;15.23;;
39524;SDS011;25203;50.754;6.978;2022-12-18T10:44:19;25.25;;;15.07;;
39524;SDS011;25203;50.754;6.978;2022-12-18T10:46:24;25.95;;;15.27;;
39524;SDS011;25203;50.754;6.978;2022-12-18T10:48:25;26.38;;;14.80;;
39524;SDS011;25203;50.754;6.978;2022-12-18T10:52:32;27.08;;;15.80;;
39524;SDS011;25203;50.754;6.978;2022-12-18T10:54:32;29.10;;;15.27;;
39524;SDS011;25203;50.754;6.978;2022-12-18T10:56:35;30.30;;;16.17;;
39524;SDS011;25203;50.754;6.978;2022-12-18T10:58:38;28.50;;;15.77;;
39524;SDS011;25203;50.754;6.978;2022-12-18T11:00:39;29.38;;;16.27;;
39524;SDS011;25203;50.754;6.978;2022-12-18T11:02:41;28.48;;;16.65;;
39524;SDS011;25203;50.754;6.978;2022-12-18T11:04:50;25.95;;;15.20;;
39524;SDS011;25203;50.754;6.978;2022-12-18T11:06:52;28.05;;;16.63;;
39524;SDS011;25203;50.754;6.978;2022-12-18T11:08:58;31.45;;;17.85;;
39524;SDS011;25203;50.754;6.978;2022-12-18T11:11:00;27.17;;;15.95;;
39524;SDS011;25203;50.754;6.978;2022-12-18T11:13:09;26.02;;;15.10;;
39524;SDS011;25203;50.754;6.978;2022-12-18T11:15:19;28.55;;;15.50;;
39524;SDS011;25203;50.754;6.978;2022-12-18T11:17:25;32.05;;;16.70;;
39524;SDS011;25203;50.754;6.978;2022-12-18T11:19:38;30.27;;;17.50;;
39524;SDS011;25203;50.754;6.978;2022-12-18T11:21:41;32.83;;;17.80;;
39524;SDS011;25203;50.754;6.978;2022-12-18T11:23:52;29.95;;;17.98;;
39524;SDS011;25203;50.754;6.978;2022-12-18T11:26:03;28.88;;;16.50;;
39524;SDS011;25203;50.754;6.978;2022-12-18T11:28:25;31.55;;;17.27;;
39524;SDS011;25203;50.754;6.978;2022-12-18T11:30:30;32.03;;;17.05;;
39524;SDS011;25203;50.754;6.978;2022-12-18T11:32:44;30.48;;;17.95;;
39524;SDS011;25203;50.754;6.978;2022-12-18T11:34:50;29.48;;;16.98;;
39524;SDS011;25203;50.754;6.978;2022-12-18T11:36:58;31.02;;;18.15;;
39524;SDS011;25203;50.754;6.978;2022-12-18T11:39:05;30.85;;;17.67;;
39524;SDS011;25203;50.754;6.978;2022-12-18T11:41:38;34.00;;;18.45;;
39524;SDS011;25203;50.754;6.978;2022-12-18T11:44:03;28.27;;;16.52;;
39524;SDS011;25203;50.754;6.978;2022-12-18T11:46:19;30.23;;;16.05;;
39524;SDS011;25203;50.754;6.978;2022-12-18T11:52:38;30.90;;;17.08;;
39524;SDS011;25203;50.754;6.978;2022-12-18T11:54:40;29.92;;;16.90;;
39524;SDS011;25203;50.754;6.978;2022-12-18T12:08:15;31.42;;;17.45;;
39524;SDS011;25203;50.754;6.978;2022-12-18T12:15:05;30.67;;;17.00;;
39524;SDS011;25203;50.754;6.978;2022-12-18T12:25:49;30.95;;;17.75;;
39524;SDS011;25203;50.754;6.978;2022-12-18T12:30:22;31.55;;;18.42;;
39524;SDS011;25203;50.754;6.978;2022-12-18T12:39:59;33.17;;;18.83;;
39524;SDS011;25203;50.754;6.978;2022-12-18T12:42:08;29.42;;;17.92;;
39524;SDS011;25203;50.754;6.978;2022-12-18T12:44:54;33.33;;;18.80;;
39524;SDS011;25203;50.754;6.978;2022-12-18T12:46:59;32.35;;;19.38;;
39524;SDS011;25203;50.754;6.978;2022-12-18T12:49:07;35.28;;;19.35;;
39524;SDS011;25203;50.754;6.978;2022-12-18T12:51:22;34.95;;;17.98;;
39524;SDS011;25203;50.754;6.978;2022-12-18T12:53:30;35.85;;;19.27;;
39524;SDS011;25203;50.754;6.978;2022-12-18T12:55:35;31.13;;;18.10;;
39524;SDS011;25203;50.754;6.978;2022-12-18T12:57:37;42.42;;;19.00;;
39524;SDS011;25203;50.754;6.978;2022-12-18T13:04:22;35.47;;;19.00;;
39524;SDS011;25203;50.754;6.978;2022-12-18T13:09:06;32.05;;;18.35;;
39524;SDS011;25203;50.754;6.978;2022-12-18T13:11:12;37.45;;;19.83;;
39524;SDS011;25203;50.754;6.978;2022-12-18T13:13:59;30.85;;;16.52;;
39524;SDS011;25203;50.754;6.978;2022-12-18T13:16:04;38.65;;;20.00;;
39524;SDS011;25203;50.754;6.978;2022-12-18T13:20:11;34.60;;;18.40;;
39524;SDS011;25203;50.754;6.978;2022-12-18T13:22:23;37.35;;;20.02;;
39524;SDS011;25203;50.754;6.978;2022-12-18T13:24:34;34.45;;;19.10;;
39524;SDS011;25203;50.754;6.978;2022-12-18T13:26:35;36.25;;;20.27;;
39524;SDS011;25203;50.754;6.978;2022-12-18T13:30:51;38.45;;;20.48;;
39524;SDS011;25203;50.754;6.978;2022-12-18T13:37:41;33.20;;;19.40;;
39524;SDS011;25203;50.754;6.978;2022-12-18T13:39:43;37.95;;;20.63;;
39524;SDS011;25203;50.754;6.978;2022-12-18T13:41:45;35.75;;;20.00;;
39524;SDS011;25203;50.754;6.978;2022-12-18T13:43:47;39.97;;;19.98;;
39524;SDS011;25203;50.754;6.978;2022-12-18T13:47:59;36.33;;;20.45;;
39524;SDS011;25203;50.754;6.978;2022-12-18T13:50:00;36.25;;;18.55;;